createdAt,value
2022-10-23T00:01:42.186Z,98.50
2022-10-23T00:04:45.238Z,98.58
2022-10-23T00:07:56.524Z,98.77
2022-10-23T00:10:59.719Z,98.88
2022-10-23T00:14:07.676Z,99.18
2022-10-23T00:17:12.320Z,99.45
2022-10-23T00:20:17.572Z,99.47
2022-10-23T00:23:20.781Z,99.70
2022-10-23T00:26:25.366Z,99.66
2022-10-23T00:29:28.495Z,99.78
2022-10-23T00:35:35.459Z,100.00
2022-10-23T00:38:38.807Z,99.97
2022-10-23T00:41:42.965Z,99.94
2022-10-23T00:44:45.853Z,99.81
2022-10-23T00:47:49.563Z,99.78
2022-10-23T00:50:52.413Z,99.74
2022-10-23T00:54:23.071Z,99.72
2022-10-23T00:57:23.290Z,99.69
2022-10-23T01:00:32.020Z,99.87
2022-10-23T01:03:35.076Z,100.00
2022-10-23T01:06:55.539Z,99.95
2022-10-23T01:10:13.016Z,100.00
2022-10-23T01:13:28.523Z,100.00
2022-10-23T01:16:50.977Z,100.00
2022-10-23T01:20:14.223Z,100.00
2022-10-23T01:23:56.023Z,100.00
2022-10-23T01:27:28.025Z,100.00
2022-10-23T01:30:33.862Z,100.00
2022-10-23T01:33:44.964Z,100.00
2022-10-23T01:36:51.371Z,100.00
2022-10-23T01:40:01.547Z,100.00
2022-10-23T01:43:13.384Z,100.00
2022-10-23T01:46:18.089Z,100.00
2022-10-23T01:49:22.855Z,100.00
2022-10-23T01:52:26.983Z,100.00
2022-10-23T01:55:31.716Z,99.92
2022-10-23T01:58:36.620Z,99.91
2022-10-23T02:01:44.256Z,99.76
2022-10-23T02:05:03.522Z,99.70
2022-10-23T02:08:06.968Z,99.58
2022-10-23T02:11:13.607Z,99.52
2022-10-23T02:14:18.891Z,99.54
2022-10-23T02:17:31.312Z,99.53
2022-10-23T02:20:48.495Z,99.37
2022-10-23T02:23:59.563Z,99.45
2022-10-23T02:27:09.104Z,99.64
2022-10-23T02:30:16.157Z,99.81
2022-10-23T02:33:22.071Z,100.00
2022-10-23T02:36:25.133Z,100.00
2022-10-23T02:39:30.325Z,99.90
2022-10-23T02:42:49.084Z,99.79
2022-10-23T02:46:16.472Z,99.69
2022-10-23T02:49:44.368Z,99.63
2022-10-23T02:52:50.712Z,99.59
2022-10-23T02:56:26.139Z,99.64
2022-10-23T02:59:50.612Z,99.53
2022-10-23T03:03:04.002Z,99.49
2022-10-23T03:06:07.922Z,99.63
2022-10-23T03:09:14.361Z,99.65
2022-10-23T03:12:16.811Z,99.66
2022-10-23T03:15:19.916Z,99.80
2022-10-23T03:18:24.062Z,99.87
2022-10-23T03:21:26.970Z,99.83
2022-10-23T03:24:30.211Z,99.84
2022-10-23T03:27:33.813Z,99.86
2022-10-23T03:30:38.103Z,99.81
2022-10-23T03:33:43.322Z,99.79
2022-10-23T03:36:46.446Z,99.91
2022-10-23T03:39:50.281Z,100.00
2022-10-23T03:42:53.136Z,100.00
2022-10-23T03:45:57.394Z,100.00
2022-10-23T03:49:00.272Z,100.00
2022-10-23T03:52:03.173Z,100.00
2022-10-23T03:55:06.411Z,99.80
2022-10-23T03:58:09.909Z,99.65
2022-10-23T04:01:12.419Z,99.62
2022-10-23T04:04:17.289Z,99.71
2022-10-23T04:07:21.879Z,99.80
2022-10-23T04:10:30.561Z,99.75
2022-10-23T04:13:32.970Z,99.74
2022-10-23T04:16:36.542Z,99.77
2022-10-23T04:19:39.176Z,99.82
2022-10-23T04:22:42.315Z,99.97
2022-10-23T04:28:58.732Z,100.00
2022-10-23T04:32:04.491Z,100.00
2022-10-23T04:35:08.603Z,100.00
2022-10-23T04:38:11.618Z,100.00
2022-10-23T04:41:15.054Z,100.00
2022-10-23T04:44:23.933Z,100.00
2022-10-23T04:47:26.844Z,100.00
2022-10-23T04:50:30.229Z,100.00
2022-10-23T04:53:41.553Z,100.00
2022-10-23T04:56:45.184Z,100.00
2022-10-23T04:59:49.317Z,100.00
2022-10-23T05:02:53.951Z,100.00
2022-10-23T05:05:57.543Z,100.00
2022-10-23T05:09:04.114Z,100.00
2022-10-23T05:12:07.167Z,100.00
2022-10-23T05:15:11.904Z,100.00
2022-10-23T05:18:25.849Z,100.00
2022-10-23T05:21:34.582Z,100.00
2022-10-23T05:24:40.721Z,100.00
2022-10-23T05:27:46.130Z,100.00
2022-10-23T05:30:50.068Z,100.00
2022-10-23T05:33:55.564Z,100.00
2022-10-23T05:37:07.862Z,100.00
2022-10-23T05:40:18.454Z,99.96
2022-10-23T05:43:23.365Z,99.72
2022-10-23T05:46:28.001Z,99.60
2022-10-23T05:49:32.005Z,99.44
2022-10-23T05:52:43.140Z,99.56
2022-10-23T05:55:49.108Z,99.65
2022-10-23T05:59:01.304Z,99.48
2022-10-23T06:02:07.035Z,99.28
2022-10-23T06:05:14.140Z,99.29
2022-10-23T06:08:18.720Z,99.23
2022-10-23T06:11:24.953Z,99.16
2022-10-23T06:14:29.535Z,99.03
2022-10-23T06:17:43.498Z,98.68
2022-10-23T06:20:53.426Z,98.54
2022-10-23T06:23:59.211Z,98.41
2022-10-23T06:27:11.113Z,98.36
2022-10-23T06:30:18.154Z,98.06
2022-10-23T06:33:22.645Z,98.03
2022-10-23T06:36:33.991Z,97.87
2022-10-23T06:39:40.493Z,97.73
2022-10-23T06:42:56.995Z,97.59
2022-10-23T06:46:10.127Z,97.43
2022-10-23T06:49:22.927Z,97.36
2022-10-23T06:52:45.960Z,97.27
2022-10-23T06:56:01.977Z,97.35
2022-10-23T06:59:09.993Z,97.20
2022-10-23T07:02:14.149Z,97.28
2022-10-23T07:05:19.504Z,97.41
2022-10-23T07:08:26.960Z,97.49
2022-10-23T07:11:37.958Z,97.39
2022-10-23T07:14:41.775Z,97.23
2022-10-23T07:17:44.681Z,97.15
2022-10-23T07:20:58.194Z,97.10
2022-10-23T07:24:04.035Z,96.94
2022-10-23T07:27:09.538Z,96.89
2022-10-23T07:30:19.626Z,96.71
2022-10-23T07:33:35.210Z,96.81
2022-10-23T07:36:40.978Z,97.12
2022-10-23T07:39:51.893Z,97.15
2022-10-23T07:43:02.971Z,96.88
2022-10-23T07:46:08.917Z,97.00
2022-10-23T07:49:13.151Z,97.25
2022-10-23T07:52:16.842Z,97.21
2022-10-23T07:55:25.972Z,96.91
2022-10-23T07:58:33.511Z,96.58
2022-10-23T08:01:39.484Z,95.94
2022-10-23T08:04:44.102Z,95.91
2022-10-23T08:07:55.970Z,96.06
2022-10-23T08:10:59.315Z,95.76
2022-10-23T08:14:08.575Z,95.66
2022-10-23T08:17:33.159Z,95.73
2022-10-23T08:20:46.894Z,95.83
2022-10-23T08:24:00.096Z,95.33
2022-10-23T08:27:10.166Z,95.42
2022-10-23T08:30:17.144Z,95.51
2022-10-23T08:33:22.986Z,95.31
2022-10-23T08:36:29.524Z,95.63
2022-10-23T08:39:39.424Z,95.25
2022-10-23T08:42:47.176Z,95.52
2022-10-23T08:46:02.646Z,94.96
2022-10-23T08:49:29.964Z,95.27
2022-10-23T08:52:55.151Z,95.69
2022-10-23T08:56:28.136Z,95.44
2022-10-23T08:59:44.103Z,95.09
2022-10-23T09:02:50.944Z,95.01
2022-10-23T09:06:20.178Z,94.99
2022-10-23T09:09:33.123Z,94.70
2022-10-23T09:12:39.391Z,94.17
2022-10-23T09:15:53.120Z,93.88
2022-10-23T09:18:58.876Z,93.13
2022-10-23T09:22:04.046Z,93.09
2022-10-23T09:25:15.128Z,93.40
2022-10-23T09:28:27.559Z,93.51
2022-10-23T09:31:33.100Z,93.54
2022-10-23T09:34:40.146Z,92.76
2022-10-23T09:37:54.185Z,92.28
2022-10-23T09:41:04.210Z,91.69
2022-10-23T09:44:09.006Z,91.63
2022-10-23T09:47:20.820Z,91.44
2022-10-23T09:50:26.139Z,91.38
2022-10-23T09:53:35.927Z,90.71
2022-10-23T09:56:43.081Z,90.18
2022-10-23T09:59:55.984Z,89.78
2022-10-23T10:03:06.363Z,89.67
2022-10-23T10:06:37.907Z,89.96
2022-10-23T10:09:47.965Z,90.49
2022-10-23T10:12:59.458Z,91.48
2022-10-23T10:16:16.998Z,91.78
2022-10-23T10:19:48.952Z,90.77
2022-10-23T10:23:27.078Z,90.54
2022-10-23T10:26:57.968Z,90.16
2022-10-23T10:30:21.270Z,89.82
2022-10-23T10:33:41.017Z,89.77
2022-10-23T10:37:03.026Z,90.89
2022-10-23T10:40:16.929Z,91.99
2022-10-23T10:43:44.439Z,91.59
2022-10-23T10:46:55.225Z,91.08
2022-10-23T10:50:15.993Z,89.90
2022-10-23T10:53:58.876Z,89.60
2022-10-23T10:57:40.962Z,90.53
2022-10-23T11:00:54.016Z,90.65
2022-10-23T11:04:31.955Z,89.98
2022-10-23T11:07:44.488Z,89.11
2022-10-23T11:14:37.322Z,88.66
2022-10-23T11:22:13.978Z,87.32
2022-10-23T11:25:47.986Z,85.45
2022-10-23T11:29:18.976Z,85.14
2022-10-23T11:36:07.331Z,86.15
2022-10-23T11:39:19.989Z,85.95
2022-10-23T11:42:46.888Z,86.75
2022-10-23T11:45:57.889Z,86.01
2022-10-23T11:52:27.360Z,84.32
2022-10-23T11:55:32.957Z,86.23
2022-10-23T11:59:02.973Z,86.79
2022-10-23T12:02:39.347Z,87.00
2022-10-23T12:05:45.899Z,86.26
2022-10-23T12:08:54.969Z,85.53
2022-10-23T12:12:09.580Z,86.34
2022-10-23T12:15:19.359Z,86.25
2022-10-23T12:18:24.940Z,86.71
2022-10-23T12:21:42.044Z,86.53
2022-10-23T12:24:53.061Z,86.83
2022-10-23T12:28:05.987Z,86.67
2022-10-23T12:31:20.000Z,86.79
2022-10-23T12:34:26.416Z,86.16
2022-10-23T12:37:50.195Z,85.75
2022-10-23T12:41:07.974Z,85.56
2022-10-23T12:44:18.989Z,86.11
2022-10-23T12:47:22.327Z,86.12
2022-10-23T12:50:30.119Z,86.38
2022-10-23T12:53:35.114Z,86.21
2022-10-23T12:56:44.126Z,85.86
2022-10-23T12:59:47.441Z,85.49
2022-10-23T13:03:00.944Z,85.33
2022-10-23T13:06:06.975Z,85.12
2022-10-23T13:09:25.116Z,85.72
2022-10-23T13:12:37.177Z,86.12
2022-10-23T13:15:48.110Z,86.22
2022-10-23T13:18:54.951Z,86.10
2022-10-23T13:22:14.963Z,86.07
2022-10-23T13:25:29.090Z,86.45
2022-10-23T13:28:47.921Z,87.10
2022-10-23T13:31:56.881Z,86.69
2022-10-23T13:35:17.311Z,86.90
2022-10-23T13:38:36.371Z,86.79
2022-10-23T13:41:44.958Z,86.76
2022-10-23T13:44:48.362Z,86.74
2022-10-23T13:47:52.929Z,86.53
2022-10-23T13:51:16.549Z,86.43
2022-10-23T13:54:25.136Z,86.41
2022-10-23T13:57:28.904Z,86.87
2022-10-23T14:00:34.217Z,86.82
2022-10-23T14:03:45.107Z,86.47
2022-10-23T14:06:49.020Z,86.44
2022-10-23T14:09:52.826Z,85.87
2022-10-23T14:12:58.193Z,85.53
2022-10-23T14:16:02.982Z,85.70
2022-10-23T14:19:23.579Z,85.78
2022-10-23T14:22:34.039Z,85.98
2022-10-23T14:25:44.985Z,85.59
2022-10-23T14:28:59.571Z,86.12
2022-10-23T14:32:06.556Z,86.30
2022-10-23T14:35:25.882Z,86.55
2022-10-23T14:38:41.006Z,87.04
2022-10-23T14:41:57.504Z,87.48
2022-10-23T14:45:09.133Z,87.59
2022-10-23T14:48:14.204Z,87.47
2022-10-23T14:51:27.936Z,87.66
2022-10-23T14:54:35.075Z,87.48
2022-10-23T14:57:41.073Z,87.34
2022-10-23T15:01:11.134Z,87.28
2022-10-23T15:04:29.971Z,86.93
2022-10-23T15:07:35.232Z,87.17
2022-10-23T15:10:40.069Z,86.94
2022-10-23T15:13:55.485Z,87.11
2022-10-23T15:16:59.115Z,86.89
2022-10-23T15:20:18.038Z,86.97
2022-10-23T15:23:24.397Z,87.28
2022-10-23T15:26:36.943Z,87.26
2022-10-23T15:29:53.287Z,87.34
2022-10-23T15:33:02.134Z,87.50
2022-10-23T15:36:13.265Z,87.65
2022-10-23T15:39:20.337Z,87.87
2022-10-23T15:42:25.149Z,88.33
2022-10-23T15:45:34.145Z,88.20
2022-10-23T15:48:39.954Z,88.63
2022-10-23T15:51:46.998Z,88.83
2022-10-23T15:55:00.120Z,88.98
2022-10-23T15:58:05.634Z,89.32
2022-10-23T16:01:15.283Z,89.62
2022-10-23T16:04:21.420Z,89.67
2022-10-23T16:07:30.236Z,88.31
2022-10-23T16:10:43.953Z,85.88
2022-10-23T16:13:50.001Z,84.02
2022-10-23T16:17:01.041Z,84.78
2022-10-23T16:20:06.957Z,83.93
2022-10-23T16:23:15.923Z,84.46
2022-10-23T16:26:25.109Z,84.98
2022-10-23T16:29:31.933Z,84.72
2022-10-23T16:32:38.166Z,85.21
2022-10-23T16:35:55.328Z,85.63
2022-10-23T16:38:59.631Z,85.15
2022-10-23T16:42:20.226Z,85.40
2022-10-23T16:45:28.115Z,85.59
2022-10-23T16:48:36.348Z,85.18
2022-10-23T16:51:46.967Z,85.44
2022-10-23T16:54:51.372Z,85.46
2022-10-23T16:58:02.125Z,85.65
2022-10-23T17:01:24.073Z,86.08
2022-10-23T17:04:39.033Z,86.13
2022-10-23T17:07:46.092Z,86.08
2022-10-23T17:11:12.762Z,86.49
2022-10-23T17:14:21.356Z,86.46
2022-10-23T17:17:28.927Z,86.25
2022-10-23T17:20:35.117Z,86.36
2022-10-23T17:23:38.955Z,86.37
2022-10-23T17:26:50.082Z,86.49
2022-10-23T17:30:04.075Z,86.67
2022-10-23T17:33:08.946Z,86.98
2022-10-23T17:36:16.201Z,87.17
2022-10-23T17:39:27.000Z,87.26
2022-10-23T17:42:35.987Z,87.75
2022-10-23T17:45:42.984Z,87.67
2022-10-23T17:52:05.372Z,88.09
2022-10-23T17:55:13.404Z,88.28
2022-10-23T17:58:19.137Z,88.48
2022-10-23T18:01:25.842Z,88.40
2022-10-23T18:04:37.239Z,88.37
2022-10-23T18:07:42.429Z,88.75
2022-10-23T18:10:47.920Z,88.96
2022-10-23T18:14:05.382Z,88.76
2022-10-23T18:17:10.938Z,89.19
2022-10-23T18:20:23.304Z,89.21
2022-10-23T18:23:35.327Z,89.42
2022-10-23T18:26:41.055Z,89.26
2022-10-23T18:29:44.955Z,89.23
2022-10-23T18:33:01.951Z,89.21
2022-10-23T18:36:26.146Z,89.08
2022-10-23T18:39:31.924Z,88.83
2022-10-23T18:42:36.974Z,88.98
2022-10-23T18:45:42.573Z,89.03
2022-10-23T18:48:52.157Z,88.93
2022-10-23T18:52:09.274Z,88.97
2022-10-23T18:55:19.997Z,88.91
2022-10-23T18:58:24.481Z,88.92
2022-10-23T19:01:40.966Z,89.20
2022-10-23T19:04:46.052Z,89.36
2022-10-23T19:08:06.866Z,89.56
2022-10-23T19:11:27.930Z,89.51
2022-10-23T19:14:40.478Z,89.77
2022-10-23T19:17:53.928Z,89.93
2022-10-23T19:21:00.411Z,90.13
2022-10-23T19:24:10.944Z,90.65
2022-10-23T19:27:15.137Z,90.68
2022-10-23T19:30:22.695Z,90.90
2022-10-23T19:33:41.525Z,91.07
2022-10-23T19:36:47.757Z,91.10
2022-10-23T19:39:52.944Z,91.42
2022-10-23T19:42:56.386Z,91.46
2022-10-23T19:46:09.351Z,91.68
2022-10-23T19:49:24.507Z,91.75
2022-10-23T19:52:27.832Z,92.06
2022-10-23T19:55:31.747Z,91.90
2022-10-23T19:58:35.980Z,92.07
2022-10-23T20:01:40.686Z,92.27
2022-10-23T20:05:02.010Z,92.49
2022-10-23T20:08:05.949Z,92.84
2022-10-23T20:11:17.908Z,92.75
2022-10-23T20:14:26.053Z,92.52
2022-10-23T20:17:32.194Z,92.42
2022-10-23T20:20:41.987Z,92.32
2022-10-23T20:23:57.147Z,92.27
2022-10-23T20:27:02.501Z,92.12
2022-10-23T20:30:08.953Z,92.17
2022-10-23T20:33:12.355Z,92.12
2022-10-23T20:36:27.038Z,92.02
2022-10-23T20:39:35.766Z,92.05
2022-10-23T20:42:41.991Z,92.02
2022-10-23T20:45:48.891Z,92.22
2022-10-23T20:48:54.091Z,92.48
2022-10-23T20:51:58.212Z,92.48
2022-10-23T20:55:01.065Z,92.68
2022-10-23T20:58:07.406Z,92.56
2022-10-23T21:01:17.087Z,92.71
2022-10-23T21:04:25.208Z,92.70
2022-10-23T21:07:28.754Z,92.59
2022-10-23T21:10:31.262Z,92.56
2022-10-23T21:13:34.502Z,92.38
2022-10-23T21:16:44.920Z,92.31
2022-10-23T21:19:48.009Z,92.33
2022-10-23T21:22:57.603Z,92.41
2022-10-23T21:26:06.187Z,92.52
2022-10-23T21:29:18.663Z,92.60
2022-10-23T21:32:23.014Z,92.51
2022-10-23T21:35:27.862Z,92.35
2022-10-23T21:38:32.950Z,92.28
2022-10-23T21:41:35.872Z,92.21
2022-10-23T21:44:41.896Z,92.28
2022-10-23T21:47:45.045Z,92.01
2022-10-23T21:53:54.563Z,92.08
2022-10-23T21:56:59.360Z,92.30
2022-10-23T22:00:06.125Z,92.36
2022-10-23T22:03:16.246Z,92.57
2022-10-23T22:06:25.755Z,93.11
2022-10-23T22:09:28.835Z,92.90
2022-10-23T22:12:32.075Z,93.08
2022-10-23T22:15:34.655Z,93.05
2022-10-23T22:18:38.178Z,93.18
2022-10-23T22:21:41.327Z,93.02
2022-10-23T22:24:45.108Z,93.13
2022-10-23T22:27:48.578Z,93.25
2022-10-23T22:30:52.317Z,93.26
2022-10-23T22:33:57.289Z,93.50
2022-10-23T22:37:00.742Z,93.91
2022-10-23T22:40:04.675Z,94.13
2022-10-23T22:43:07.519Z,94.44
2022-10-23T22:46:14.276Z,94.58
2022-10-23T22:49:17.080Z,94.89
2022-10-23T22:52:19.993Z,95.04
2022-10-23T22:55:23.466Z,95.36
2022-10-23T22:58:29.072Z,95.39
2022-10-23T23:01:35.820Z,95.41
2022-10-23T23:04:39.370Z,95.68
2022-10-23T23:07:42.563Z,95.67
2022-10-23T23:10:54.269Z,96.13
2022-10-23T23:13:57.221Z,96.49
2022-10-23T23:16:59.948Z,96.83
2022-10-23T23:20:03.796Z,96.95
2022-10-23T23:23:06.934Z,97.20
2022-10-23T23:26:12.041Z,97.33
2022-10-23T23:29:15.308Z,97.45
2022-10-23T23:32:18.507Z,97.58
2022-10-23T23:35:21.130Z,97.62
2022-10-23T23:38:24.268Z,97.67
2022-10-23T23:41:28.526Z,97.63
2022-10-23T23:44:31.857Z,97.70
2022-10-23T23:47:34.457Z,97.78
2022-10-23T23:50:37.777Z,97.83
2022-10-23T23:53:40.940Z,98.13
2022-10-23T23:56:43.665Z,98.19
2022-10-23T23:59:46.122Z,98.28
